createdAt,value
2019-05-18T00:00:35.161Z,43.54
2019-05-18T00:03:03.471Z,43.95
2019-05-18T00:05:32.237Z,43.50
2019-05-18T00:08:00.536Z,43.13
2019-05-18T00:10:28.849Z,43.94
2019-05-18T00:12:57.150Z,43.74
2019-05-18T00:15:25.517Z,43.93
2019-05-18T00:17:53.831Z,43.24
2019-05-18T00:20:22.132Z,44.02
2019-05-18T00:22:50.450Z,44.99
2019-05-18T00:25:18.750Z,44.91
2019-05-18T00:27:47.447Z,47.30
2019-05-18T00:30:16.115Z,45.28
2019-05-18T00:32:44.724Z,46.08
2019-05-18T00:35:16.589Z,46.52
2019-05-18T00:37:44.858Z,46.13
2019-05-18T00:40:13.266Z,48.80
2019-05-18T00:42:41.833Z,48.67
2019-05-18T00:45:10.469Z,48.21
2019-05-18T00:47:41.754Z,47.85
2019-05-18T00:50:09.387Z,47.71
2019-05-18T00:52:37.676Z,46.53
2019-05-18T00:55:07.829Z,47.55
2019-05-18T00:57:36.122Z,47.59
2019-05-18T01:00:07.384Z,48.29
2019-05-18T01:02:35.666Z,47.62
2019-05-18T01:05:06.791Z,48.53
2019-05-18T01:07:35.152Z,47.85
2019-05-18T01:10:04.915Z,48.17
2019-05-18T01:12:33.277Z,48.88
2019-05-18T01:15:01.965Z,46.81
2019-05-18T01:17:30.332Z,48.84
2019-05-18T01:19:58.741Z,47.28
2019-05-18T01:22:27.159Z,47.68
2019-05-18T01:24:55.460Z,46.85
2019-05-18T01:27:23.778Z,48.74
2019-05-18T01:29:52.139Z,45.87
2019-05-18T01:32:20.722Z,45.03
2019-05-18T01:34:49.088Z,47.87
2019-05-18T01:37:17.422Z,48.43
2019-05-18T01:39:46.091Z,50.05
2019-05-18T01:42:14.377Z,49.52
2019-05-18T01:44:42.900Z,53.87
2019-05-18T01:47:11.636Z,51.10
2019-05-18T01:49:39.978Z,50.42
2019-05-18T01:52:08.264Z,53.12
2019-05-18T01:54:36.643Z,53.71
2019-05-18T01:57:04.949Z,51.25
2019-05-18T01:59:33.246Z,51.02
2019-05-18T02:02:01.568Z,49.54
2019-05-18T02:04:29.865Z,51.73
2019-05-18T02:06:58.489Z,50.29
2019-05-18T02:09:26.787Z,48.82
2019-05-18T02:11:55.458Z,47.01
2019-05-18T02:14:23.756Z,49.28
2019-05-18T02:16:52.079Z,47.40
2019-05-18T02:19:20.379Z,46.43
2019-05-18T02:21:48.675Z,46.75
2019-05-18T02:24:16.988Z,48.74
2019-05-18T02:26:45.285Z,46.98
2019-05-18T02:29:13.714Z,45.08
2019-05-18T02:31:42.012Z,45.75
2019-05-18T02:34:10.325Z,47.75
2019-05-18T02:36:38.635Z,48.45
2019-05-18T02:39:07.872Z,52.07
2019-05-18T02:41:36.269Z,52.73
2019-05-18T02:44:05.518Z,52.91
2019-05-18T02:46:33.890Z,47.42
2019-05-18T02:49:02.202Z,46.48
2019-05-18T02:51:30.494Z,47.29
2019-05-18T02:53:59.663Z,48.84
2019-05-18T02:56:27.957Z,46.96
2019-05-18T02:58:56.278Z,45.00
2019-05-18T03:01:24.931Z,46.62
2019-05-18T03:03:53.313Z,44.58
2019-05-18T03:06:21.749Z,46.30
2019-05-18T03:08:50.082Z,45.59
2019-05-18T03:11:18.563Z,44.53
2019-05-18T03:13:47.077Z,44.40
2019-05-18T03:16:15.740Z,45.48
2019-05-18T03:18:44.427Z,46.02
2019-05-18T03:21:12.886Z,46.29
2019-05-18T03:23:41.504Z,46.98
2019-05-18T03:26:11.141Z,46.81
2019-05-18T03:28:39.396Z,46.21
2019-05-18T03:31:07.871Z,46.59
2019-05-18T03:33:36.774Z,44.29
2019-05-18T03:36:05.235Z,45.44
2019-05-18T03:38:33.523Z,45.99
2019-05-18T03:41:01.862Z,45.38
2019-05-18T03:43:30.166Z,44.59
2019-05-18T03:45:58.709Z,45.03
2019-05-18T03:48:27.031Z,43.74
2019-05-18T03:50:55.326Z,43.88
2019-05-18T03:53:24.018Z,45.93
2019-05-18T03:55:52.323Z,44.63
2019-05-18T03:58:20.642Z,44.10
2019-05-18T04:00:48.946Z,47.30
2019-05-18T04:03:17.340Z,47.36
2019-05-18T04:05:45.639Z,48.71
2019-05-18T04:08:13.968Z,46.77
2019-05-18T04:10:42.258Z,45.96
2019-05-18T04:13:10.554Z,45.58
2019-05-18T04:15:38.895Z,46.68
2019-05-18T04:18:07.185Z,46.28
2019-05-18T04:20:35.496Z,48.15
2019-05-18T04:23:04.087Z,48.19
2019-05-18T04:25:32.479Z,47.47
2019-05-18T04:28:01.027Z,47.63
2019-05-18T04:30:29.349Z,46.86
2019-05-18T04:32:57.635Z,46.57
2019-05-18T04:35:26.010Z,47.69
2019-05-18T04:37:54.305Z,46.42
2019-05-18T04:40:22.776Z,46.15
2019-05-18T04:42:51.077Z,46.59
2019-05-18T04:45:19.437Z,46.57
2019-05-18T04:47:48.859Z,45.25
2019-05-18T04:50:17.498Z,46.24
2019-05-18T04:52:45.819Z,46.00
2019-05-18T04:55:14.585Z,48.84
2019-05-18T04:57:42.922Z,45.80
2019-05-18T05:00:12.379Z,46.89
2019-05-18T05:02:40.775Z,46.69
2019-05-18T05:05:09.328Z,45.90
2019-05-18T05:07:37.641Z,45.07
2019-05-18T05:10:07.222Z,46.03
2019-05-18T05:12:35.510Z,45.85
2019-05-18T05:15:04.864Z,44.64
2019-05-18T05:17:33.167Z,44.33
2019-05-18T05:20:01.489Z,43.31
2019-05-18T05:22:29.838Z,42.73
2019-05-18T05:24:58.554Z,44.54
2019-05-18T05:27:26.929Z,45.34
2019-05-18T05:29:55.432Z,45.89
2019-05-18T05:32:24.112Z,46.54
2019-05-18T05:34:52.410Z,45.10
2019-05-18T05:37:20.737Z,43.23
2019-05-18T05:39:49.041Z,43.05
2019-05-18T05:42:17.343Z,41.11
2019-05-18T05:44:45.659Z,40.84
2019-05-18T05:47:13.952Z,42.41
2019-05-18T05:49:42.371Z,40.79
2019-05-18T05:52:11.054Z,41.95
2019-05-18T05:54:39.463Z,42.42
2019-05-18T05:57:07.839Z,42.38
2019-05-18T05:59:36.244Z,41.89
2019-05-18T06:02:04.548Z,40.93
2019-05-18T06:04:32.840Z,40.67
2019-05-18T06:07:01.155Z,40.83
2019-05-18T06:09:29.802Z,41.84
2019-05-18T06:11:58.128Z,41.17
2019-05-18T06:14:26.472Z,40.38
2019-05-18T06:16:54.867Z,41.47
2019-05-18T06:19:23.196Z,40.34
2019-05-18T06:21:51.530Z,39.21
2019-05-18T06:24:19.925Z,40.62
2019-05-18T06:26:48.380Z,39.88
2019-05-18T06:29:16.783Z,40.28
2019-05-18T06:31:45.150Z,39.29
2019-05-18T06:34:13.447Z,39.54
2019-05-18T06:36:41.766Z,38.80
2019-05-18T06:39:10.065Z,40.31
2019-05-18T06:41:38.699Z,39.95
2019-05-18T06:44:07.563Z,38.54
2019-05-18T06:46:35.905Z,39.55
2019-05-18T06:49:04.273Z,38.96
2019-05-18T06:51:32.954Z,38.41
2019-05-18T06:54:01.680Z,37.44
2019-05-18T06:56:30.318Z,37.72
2019-05-18T06:58:59.708Z,38.87
2019-05-18T07:01:28.085Z,37.99
2019-05-18T07:03:56.401Z,37.76
2019-05-18T07:06:24.771Z,37.50
2019-05-18T07:08:53.095Z,37.46
2019-05-18T07:11:21.393Z,39.38
2019-05-18T07:13:49.882Z,37.56
2019-05-18T07:16:18.184Z,38.02
2019-05-18T07:18:46.560Z,38.40
2019-05-18T07:21:22.382Z,37.89
2019-05-18T07:23:45.039Z,38.45
2019-05-18T07:26:13.466Z,36.84
2019-05-18T07:28:41.834Z,38.34
2019-05-18T07:31:10.549Z,38.31
2019-05-18T07:33:39.138Z,37.24
2019-05-18T07:36:07.505Z,36.75
2019-05-18T07:38:35.832Z,36.82
2019-05-18T07:41:04.336Z,37.39
2019-05-18T07:43:32.639Z,36.72
2019-05-18T07:46:00.969Z,38.16
2019-05-18T07:48:29.485Z,37.93
2019-05-18T07:50:57.777Z,37.36
2019-05-18T07:53:26.102Z,37.35
2019-05-18T07:55:54.568Z,39.27
2019-05-18T07:58:23.244Z,37.54
2019-05-18T08:00:51.687Z,38.47
2019-05-18T08:03:19.998Z,38.12
2019-05-18T08:05:48.322Z,38.18
2019-05-18T08:08:16.786Z,37.09
2019-05-18T08:10:45.111Z,35.94
2019-05-18T08:13:13.722Z,36.70
2019-05-18T08:15:42.114Z,39.52
2019-05-18T08:18:10.483Z,37.69
2019-05-18T08:20:38.826Z,36.49
2019-05-18T08:23:07.207Z,37.23
2019-05-18T08:25:35.577Z,37.15
2019-05-18T08:28:03.942Z,36.35
2019-05-18T08:30:32.303Z,35.96
2019-05-18T08:33:00.621Z,36.61
2019-05-18T08:35:28.924Z,36.84
2019-05-18T08:37:57.303Z,35.86
2019-05-18T08:40:25.603Z,36.02
2019-05-18T08:42:54.070Z,38.08
2019-05-18T08:45:22.372Z,36.20
2019-05-18T08:47:50.694Z,35.43
2019-05-18T08:50:19.459Z,35.26
2019-05-18T08:52:48.467Z,36.17
2019-05-18T08:55:16.924Z,35.48
2019-05-18T08:57:45.212Z,35.88
2019-05-18T09:00:13.863Z,35.32
2019-05-18T09:02:42.172Z,34.15
2019-05-18T09:05:11.035Z,33.73
2019-05-18T09:07:39.337Z,34.72
2019-05-18T09:10:08.497Z,34.23
2019-05-18T09:12:36.859Z,33.75
2019-05-18T09:15:07.423Z,34.30
2019-05-18T09:17:35.710Z,34.21
2019-05-18T09:20:06.288Z,33.90
2019-05-18T09:22:34.650Z,33.30
2019-05-18T09:25:04.012Z,33.11
2019-05-18T09:27:32.371Z,33.21
2019-05-18T09:30:00.688Z,33.60
2019-05-18T09:32:29.165Z,32.52
2019-05-18T09:34:57.574Z,32.20
2019-05-18T09:37:26.089Z,31.24
2019-05-18T09:39:54.392Z,29.59
2019-05-18T09:42:22.764Z,32.38
2019-05-18T09:44:51.091Z,30.55
2019-05-18T09:47:19.499Z,34.14
2019-05-18T09:49:47.817Z,30.86
2019-05-18T09:52:16.474Z,30.67
2019-05-18T09:54:44.791Z,30.19
2019-05-18T09:57:13.160Z,30.58
2019-05-18T09:59:41.484Z,30.79
2019-05-18T10:02:09.850Z,30.11
2019-05-18T10:04:38.178Z,28.89
2019-05-18T10:07:06.552Z,29.49
2019-05-18T10:09:39.318Z,29.73
2019-05-18T10:12:04.979Z,28.83
2019-05-18T10:14:33.279Z,27.80
2019-05-18T10:17:01.618Z,28.20
2019-05-18T10:19:29.971Z,27.36
2019-05-18T10:21:58.294Z,28.06
2019-05-18T10:24:26.590Z,28.71
2019-05-18T10:26:54.919Z,26.93
2019-05-18T10:29:23.636Z,27.89
2019-05-18T10:31:51.935Z,27.38
2019-05-18T10:34:20.526Z,25.42
2019-05-18T10:36:48.821Z,27.00
2019-05-18T10:39:17.137Z,27.47
2019-05-18T10:41:45.504Z,27.58
2019-05-18T10:44:14.122Z,29.03
2019-05-18T10:46:42.488Z,27.35
2019-05-18T10:49:10.804Z,27.06
2019-05-18T10:51:39.111Z,26.10
2019-05-18T10:54:07.766Z,26.41
2019-05-18T10:56:36.098Z,24.77
2019-05-18T10:59:04.453Z,25.77
2019-05-18T11:01:33.218Z,24.46
2019-05-18T11:04:01.576Z,25.49
2019-05-18T11:06:29.878Z,25.18
2019-05-18T11:08:58.213Z,24.33
2019-05-18T11:11:26.510Z,24.78
2019-05-18T11:13:55.229Z,24.62
2019-05-18T11:16:23.911Z,23.75
2019-05-18T11:18:52.205Z,23.59
2019-05-18T11:21:20.526Z,24.92
2019-05-18T11:23:48.963Z,25.31
2019-05-18T11:26:17.468Z,24.45
2019-05-18T11:28:45.835Z,25.09
2019-05-18T11:31:14.228Z,25.74
2019-05-18T11:33:42.518Z,25.43
2019-05-18T11:36:11.021Z,27.08
2019-05-18T11:38:39.396Z,25.88
2019-05-18T11:41:08.241Z,25.05
2019-05-18T11:43:36.776Z,26.30
2019-05-18T11:46:05.424Z,23.46
2019-05-18T11:48:33.743Z,25.68
2019-05-18T11:51:02.108Z,25.12
2019-05-18T11:53:30.415Z,25.13
2019-05-18T11:55:58.733Z,25.88
2019-05-18T11:58:27.054Z,25.43
2019-05-18T12:00:55.418Z,23.69
2019-05-18T12:03:23.826Z,24.39
2019-05-18T12:05:52.119Z,25.81
2019-05-18T12:08:20.469Z,25.97
2019-05-18T12:10:48.758Z,26.44
2019-05-18T12:13:17.118Z,26.29
2019-05-18T12:15:45.438Z,24.49
2019-05-18T12:18:14.168Z,24.23
2019-05-18T12:20:43.124Z,23.53
2019-05-18T12:23:11.456Z,23.75
2019-05-18T12:25:39.756Z,24.66
2019-05-18T12:28:08.100Z,23.95
2019-05-18T12:30:36.730Z,23.77
2019-05-18T12:33:05.075Z,25.63
2019-05-18T12:35:33.365Z,25.99
2019-05-18T12:38:02.064Z,24.43
2019-05-18T12:40:30.440Z,22.96
2019-05-18T12:42:58.797Z,23.38
2019-05-18T12:45:27.500Z,22.66
2019-05-18T12:47:55.803Z,23.12
2019-05-18T12:50:24.492Z,22.18
2019-05-18T12:52:52.871Z,23.88
2019-05-18T12:55:21.842Z,23.27
2019-05-18T12:57:50.206Z,24.58
2019-05-18T13:00:19.272Z,23.55
2019-05-18T13:02:47.655Z,22.30
2019-05-18T13:05:16.804Z,21.87
2019-05-18T13:07:45.196Z,23.19
2019-05-18T13:10:14.137Z,23.81
2019-05-18T13:12:42.521Z,22.95
2019-05-18T13:15:12.423Z,23.33
2019-05-18T13:17:40.746Z,22.69
2019-05-18T13:20:11.017Z,22.36
2019-05-18T13:22:39.734Z,21.25
2019-05-18T13:25:10.807Z,22.99
2019-05-18T13:27:40.093Z,21.23
2019-05-18T13:30:10.952Z,22.54
2019-05-18T13:32:39.734Z,22.97
2019-05-18T13:35:08.672Z,20.93
2019-05-18T13:37:37.130Z,22.38
2019-05-18T13:40:07.251Z,23.55
2019-05-18T13:42:35.664Z,23.84
2019-05-18T13:45:05.890Z,20.95
2019-05-18T13:47:34.560Z,20.95
2019-05-18T13:50:03.642Z,22.14
2019-05-18T13:52:31.970Z,23.12
2019-05-18T13:55:04.503Z,21.26
2019-05-18T13:57:30.360Z,20.28
2019-05-18T13:59:58.660Z,20.05
2019-05-18T14:02:27.042Z,19.36
2019-05-18T14:04:55.338Z,19.08
2019-05-18T14:07:23.732Z,21.25
2019-05-18T14:09:52.141Z,21.09
2019-05-18T14:12:20.652Z,21.23
2019-05-18T14:14:48.986Z,21.68
2019-05-18T14:17:17.505Z,23.49
2019-05-18T14:19:45.853Z,22.41
2019-05-18T14:22:15.088Z,22.00
2019-05-18T14:24:43.547Z,20.03
2019-05-18T14:27:11.846Z,21.29
2019-05-18T14:29:40.163Z,21.75
2019-05-18T14:32:10.981Z,20.29
2019-05-18T14:34:38.981Z,20.21
2019-05-18T14:37:07.358Z,20.64
2019-05-18T14:39:36.099Z,21.01
2019-05-18T14:42:04.787Z,21.59
2019-05-18T14:44:33.186Z,22.39
2019-05-18T14:47:01.497Z,22.03
2019-05-18T14:49:30.187Z,22.59
2019-05-18T14:51:58.497Z,23.27
2019-05-18T14:54:26.899Z,20.80
2019-05-18T14:56:55.249Z,19.33
2019-05-18T14:59:23.636Z,21.40
2019-05-18T15:01:52.022Z,18.70
2019-05-18T15:04:20.732Z,20.66
2019-05-18T15:06:49.088Z,20.47
2019-05-18T15:09:17.703Z,18.40
2019-05-18T15:11:46.058Z,19.22
2019-05-18T15:14:15.323Z,18.68
2019-05-18T15:16:43.974Z,18.60
2019-05-18T15:19:12.419Z,19.30
2019-05-18T15:21:40.724Z,21.45
2019-05-18T15:24:09.065Z,21.20
2019-05-18T15:26:37.354Z,22.50
2019-05-18T15:29:05.666Z,20.76
2019-05-18T15:31:34.876Z,19.79
2019-05-18T15:34:03.374Z,21.77
2019-05-18T15:36:31.724Z,22.06
2019-05-18T15:39:00.020Z,21.60
2019-05-18T15:41:28.368Z,22.22
2019-05-18T15:43:56.634Z,22.28
2019-05-18T15:46:25.232Z,19.38
2019-05-18T15:48:53.645Z,19.90
2019-05-18T15:51:22.044Z,18.49
2019-05-18T15:53:50.398Z,19.08
2019-05-18T15:56:18.793Z,20.62
2019-05-18T15:58:47.158Z,21.68
2019-05-18T16:01:15.467Z,20.82
2019-05-18T16:03:43.786Z,23.12
2019-05-18T16:06:12.079Z,23.23
2019-05-18T16:08:40.506Z,23.25
2019-05-18T16:11:08.794Z,21.09
2019-05-18T16:13:37.196Z,20.68
2019-05-18T16:16:05.955Z,20.80
2019-05-18T16:18:34.344Z,21.30
2019-05-18T16:21:02.700Z,21.09
2019-05-18T16:23:31.113Z,22.88
2019-05-18T16:25:59.824Z,20.97
2019-05-18T16:28:28.228Z,20.47
2019-05-18T16:30:56.542Z,21.19
2019-05-18T16:33:24.876Z,23.07
2019-05-18T16:35:53.172Z,22.47
2019-05-18T16:38:21.547Z,22.32
2019-05-18T16:40:49.873Z,22.13
2019-05-18T16:43:18.566Z,22.26
2019-05-18T16:45:46.894Z,23.87
2019-05-18T16:48:15.384Z,22.48
2019-05-18T16:50:44.460Z,23.37
2019-05-18T16:53:12.844Z,23.25
2019-05-18T16:55:41.152Z,25.07
2019-05-18T16:58:09.774Z,23.81
2019-05-18T17:00:38.147Z,24.38
2019-05-18T17:03:06.463Z,23.25
2019-05-18T17:05:34.832Z,24.10
2019-05-18T17:08:03.182Z,23.57
2019-05-18T17:10:31.897Z,22.49
2019-05-18T17:13:00.242Z,23.34
2019-05-18T17:15:28.679Z,24.12
2019-05-18T17:17:57.131Z,24.72
2019-05-18T17:20:25.545Z,24.57
2019-05-18T17:22:53.882Z,25.16
2019-05-18T17:25:22.200Z,25.12
2019-05-18T17:27:50.869Z,25.97
2019-05-18T17:30:19.257Z,26.16
2019-05-18T17:32:48.614Z,25.94
2019-05-18T17:35:17.352Z,26.13
2019-05-18T17:37:45.746Z,26.77
2019-05-18T17:40:14.558Z,28.07
2019-05-18T17:42:42.993Z,26.88
2019-05-18T17:45:11.859Z,28.40
2019-05-18T17:47:40.227Z,28.29
2019-05-18T17:50:09.315Z,27.73
2019-05-18T17:52:38.077Z,27.74
2019-05-18T17:55:08.408Z,27.59
2019-05-18T17:57:36.806Z,29.30
2019-05-18T18:00:07.297Z,27.85
2019-05-18T18:02:36.004Z,28.19
2019-05-18T18:05:05.999Z,28.16
2019-05-18T18:07:34.366Z,29.14
2019-05-18T18:10:02.716Z,30.28
2019-05-18T18:12:31.045Z,30.89
2019-05-18T18:14:59.401Z,31.58
2019-05-18T18:17:28.173Z,29.96
2019-05-18T18:19:56.480Z,29.22
2019-05-18T18:22:24.966Z,30.91
2019-05-18T18:24:54.147Z,30.10
2019-05-18T18:27:25.182Z,29.76
2019-05-18T18:29:53.111Z,30.28
2019-05-18T18:32:21.517Z,30.68
2019-05-18T18:34:49.930Z,30.88
2019-05-18T18:37:18.436Z,30.69
2019-05-18T18:39:46.815Z,32.21
2019-05-18T18:42:15.215Z,30.75
2019-05-18T18:44:43.800Z,30.17
2019-05-18T18:47:12.304Z,29.60
2019-05-18T18:49:40.593Z,29.67
2019-05-18T18:52:09.268Z,30.75
2019-05-18T18:54:37.564Z,30.46
2019-05-18T18:57:05.977Z,30.68
2019-05-18T18:59:34.499Z,31.14
2019-05-18T19:02:02.970Z,32.04
2019-05-18T19:04:31.291Z,31.27
2019-05-18T19:06:59.757Z,30.85
2019-05-18T19:09:28.507Z,31.98
2019-05-18T19:11:56.892Z,32.15
2019-05-18T19:14:25.274Z,30.76
2019-05-18T19:16:53.616Z,32.27
2019-05-18T19:19:22.005Z,32.92
2019-05-18T19:21:50.370Z,32.49
2019-05-18T19:24:18.866Z,32.07
2019-05-18T19:26:47.173Z,32.84
2019-05-18T19:29:15.497Z,32.17
2019-05-18T19:31:43.816Z,31.67
2019-05-18T19:34:12.119Z,32.12
2019-05-18T19:36:40.582Z,31.75
2019-05-18T19:39:08.902Z,32.33
2019-05-18T19:41:37.292Z,34.14
2019-05-18T19:44:05.739Z,33.63
2019-05-18T19:46:34.105Z,33.24
2019-05-18T19:49:02.479Z,33.71
2019-05-18T19:51:30.828Z,34.55
2019-05-18T19:53:59.207Z,34.68
2019-05-18T19:56:27.576Z,33.78
2019-05-18T19:58:55.895Z,33.70
2019-05-18T20:01:24.587Z,33.12
2019-05-18T20:03:52.909Z,31.62
2019-05-18T20:06:21.242Z,35.23
2019-05-18T20:08:49.580Z,34.34
2019-05-18T20:11:17.947Z,33.83
2019-05-18T20:13:46.585Z,34.83
2019-05-18T20:16:14.951Z,34.04
2019-05-18T20:18:43.311Z,34.26
2019-05-18T20:21:11.714Z,32.05
2019-05-18T20:23:40.097Z,35.05
2019-05-18T20:26:09.029Z,35.02
2019-05-18T20:28:37.331Z,34.46
2019-05-18T20:31:05.729Z,35.25
2019-05-18T20:33:34.359Z,35.93
2019-05-18T20:36:02.683Z,35.83
2019-05-18T20:38:31.344Z,33.60
2019-05-18T20:40:59.651Z,34.71
2019-05-18T20:43:27.944Z,35.08
2019-05-18T20:45:56.244Z,34.72
2019-05-18T20:48:24.565Z,33.70
2019-05-18T20:50:52.869Z,34.40
2019-05-18T20:53:21.182Z,34.02
2019-05-18T20:55:49.547Z,34.36
2019-05-18T20:58:17.873Z,34.57
2019-05-18T21:00:46.244Z,35.58
2019-05-18T21:03:14.575Z,34.05
2019-05-18T21:05:42.892Z,33.12
2019-05-18T21:08:11.280Z,33.52
2019-05-18T21:10:39.571Z,34.51
2019-05-18T21:13:07.868Z,32.90
2019-05-18T21:15:36.262Z,33.78
2019-05-18T21:18:04.734Z,34.79
2019-05-18T21:20:33.328Z,35.60
2019-05-18T21:23:01.631Z,35.60
2019-05-18T21:25:29.974Z,35.91
2019-05-18T21:27:58.341Z,35.69
2019-05-18T21:30:26.741Z,36.08
2019-05-18T21:32:55.092Z,35.29
2019-05-18T21:35:23.388Z,33.74
2019-05-18T21:37:51.723Z,34.87
2019-05-18T21:40:20.091Z,34.67
2019-05-18T21:42:48.412Z,34.95
2019-05-18T21:45:18.274Z,36.01
2019-05-18T21:47:46.661Z,35.56
2019-05-18T21:50:15.526Z,35.72
2019-05-18T21:52:43.956Z,36.43
2019-05-18T21:55:12.690Z,36.53
2019-05-18T21:57:40.982Z,35.71
2019-05-18T22:00:10.863Z,32.36
2019-05-18T22:02:39.232Z,34.81
2019-05-18T22:05:07.897Z,35.42
2019-05-18T22:07:36.202Z,34.44
2019-05-18T22:10:07.282Z,34.82
2019-05-18T22:12:35.970Z,33.81
2019-05-18T22:15:06.947Z,33.56
2019-05-18T22:17:36.886Z,33.40
2019-05-18T22:20:06.139Z,35.15
2019-05-18T22:22:34.475Z,34.88
2019-05-18T22:25:02.780Z,35.07
2019-05-18T22:27:31.110Z,34.54
2019-05-18T22:29:59.782Z,33.98
2019-05-18T22:32:28.092Z,34.64
2019-05-18T22:34:56.391Z,34.06
2019-05-18T22:37:24.712Z,33.22
2019-05-18T22:39:53.071Z,32.68
2019-05-18T22:42:21.974Z,34.30
2019-05-18T22:44:50.340Z,35.92
2019-05-18T22:47:18.643Z,34.67
2019-05-18T22:49:46.961Z,34.65
2019-05-18T22:52:15.325Z,35.03
2019-05-18T22:54:43.647Z,34.45
2019-05-18T22:57:11.937Z,33.24
2019-05-18T22:59:40.259Z,33.49
2019-05-18T23:02:08.653Z,34.96
2019-05-18T23:04:37.139Z,35.58
2019-05-18T23:07:07.131Z,35.28
2019-05-18T23:09:35.460Z,34.10
2019-05-18T23:12:03.902Z,34.75
2019-05-18T23:14:32.207Z,34.90
2019-05-18T23:17:00.532Z,34.96
2019-05-18T23:19:29.139Z,35.20
2019-05-18T23:21:57.814Z,34.68
2019-05-18T23:24:26.115Z,35.56
2019-05-18T23:26:54.446Z,34.95
2019-05-18T23:29:22.753Z,34.00
2019-05-18T23:31:51.458Z,34.34
2019-05-18T23:34:19.766Z,34.88
2019-05-18T23:36:48.102Z,34.91
2019-05-18T23:39:16.702Z,35.35
2019-05-18T23:41:44.991Z,34.02
2019-05-18T23:44:13.313Z,35.76
2019-05-18T23:46:41.611Z,34.10
2019-05-18T23:49:11.112Z,33.92
2019-05-18T23:51:39.704Z,35.51
2019-05-18T23:54:08.010Z,34.24
2019-05-18T23:56:36.327Z,34.04
2019-05-18T23:59:05.188Z,33.52
